createdAt,value
2023-02-28T00:04:58.914Z,668.00
2023-02-28T00:09:58.227Z,797.00
2023-02-28T00:14:57.527Z,730.00
2023-02-28T00:19:57.838Z,704.00
2023-02-28T00:24:57.159Z,752.00
2023-02-28T00:29:56.480Z,728.00
2023-02-28T00:34:54.821Z,709.00
2023-02-28T00:39:53.947Z,728.00
2023-02-28T00:44:54.280Z,770.00
2023-02-28T00:49:53.606Z,723.00
2023-02-28T00:54:50.926Z,703.00
2023-02-28T00:59:52.273Z,692.00
2023-02-28T01:04:50.676Z,692.00
2023-02-28T01:09:49.775Z,696.00
2023-02-28T01:14:48.962Z,682.00
2023-02-28T01:19:50.132Z,666.00
2023-02-28T01:24:48.312Z,675.00
2023-02-28T01:29:46.527Z,660.00
2023-02-28T01:34:45.713Z,665.00
2023-02-28T01:39:45.874Z,659.00
2023-02-28T01:44:44.033Z,666.00
2023-02-28T01:49:43.179Z,669.00
2023-02-28T01:54:42.368Z,660.00
2023-02-28T01:59:41.545Z,669.00
2023-02-28T02:04:41.721Z,660.00
2023-02-28T02:09:39.910Z,641.00
2023-02-28T02:14:39.084Z,639.00
2023-02-28T02:19:39.299Z,659.00
2023-02-28T02:24:36.474Z,641.00
2023-02-28T02:29:38.668Z,627.00
2023-02-28T02:34:35.842Z,636.00
2023-02-28T02:39:35.041Z,638.00
2023-02-28T02:44:35.270Z,636.00
2023-02-28T02:49:34.486Z,632.00
2023-02-28T02:54:32.688Z,630.00
2023-02-28T02:59:31.891Z,625.00
2023-02-28T03:04:31.085Z,622.00
2023-02-28T03:09:30.248Z,635.00
2023-02-28T03:14:29.417Z,624.00
2023-02-28T03:19:28.608Z,623.00
2023-02-28T03:24:27.768Z,626.00
2023-02-28T03:29:27.961Z,626.00
2023-02-28T03:34:26.193Z,628.00
2023-02-28T03:39:25.364Z,616.00
2023-02-28T03:44:25.546Z,629.00
2023-02-28T03:49:24.755Z,626.00
2023-02-28T03:54:22.930Z,620.00
2023-02-28T03:59:22.225Z,628.00
2023-02-28T04:04:22.560Z,635.00
2023-02-28T04:09:20.691Z,626.00
2023-02-28T04:14:21.009Z,631.00
2023-02-28T04:19:19.329Z,625.00
2023-02-28T04:24:18.505Z,625.00
2023-02-28T04:29:17.638Z,634.00
2023-02-28T04:34:16.981Z,632.00
2023-02-28T04:39:17.157Z,630.00
2023-02-28T04:44:17.345Z,621.00
2023-02-28T04:49:14.456Z,630.00
2023-02-28T04:54:14.581Z,618.00
2023-02-28T04:59:13.773Z,625.00
2023-02-28T05:04:12.924Z,632.00
2023-02-28T05:09:12.260Z,629.00
2023-02-28T05:14:10.372Z,618.00
2023-02-28T05:19:09.755Z,627.00
2023-02-28T05:24:12.036Z,629.00
2023-02-28T05:29:08.161Z,625.00
2023-02-28T05:34:07.497Z,629.00
2023-02-28T05:39:05.798Z,624.00
2023-02-28T05:44:05.991Z,622.00
2023-02-28T05:49:07.240Z,612.00
2023-02-28T05:54:04.458Z,633.00
2023-02-28T05:59:03.620Z,627.00
2023-02-28T06:04:03.726Z,626.00
2023-02-28T06:09:03.028Z,632.00
2023-02-28T06:14:02.375Z,607.00
2023-02-28T06:19:01.683Z,625.00
2023-02-28T06:23:59.980Z,628.00
2023-02-28T06:28:58.324Z,622.00
2023-02-28T06:33:58.446Z,628.00
2023-02-28T06:38:59.773Z,618.00
2023-02-28T06:43:57.113Z,630.00
2023-02-28T06:48:56.232Z,617.00
2023-02-28T06:53:55.383Z,622.00
2023-02-28T06:58:54.535Z,625.00
2023-02-28T07:03:53.897Z,633.00
2023-02-28T07:08:53.036Z,626.00
2023-02-28T07:13:53.388Z,631.00
2023-02-28T07:18:51.532Z,623.00
2023-02-28T07:23:50.657Z,628.00
2023-02-28T07:28:50.960Z,604.00
2023-02-28T07:33:48.292Z,606.00
2023-02-28T07:38:50.606Z,604.00
2023-02-28T07:43:50.980Z,599.00
2023-02-28T07:48:47.074Z,596.00
2023-02-28T07:53:46.386Z,572.00
2023-02-28T07:58:45.669Z,603.00
2023-02-28T08:03:46.021Z,602.00
2023-02-28T08:08:44.331Z,553.00
2023-02-28T08:13:43.674Z,589.00
2023-02-28T08:18:43.815Z,595.00
2023-02-28T08:23:43.976Z,629.00
2023-02-28T08:28:43.070Z,632.00
2023-02-28T08:33:40.395Z,620.00
2023-02-28T08:38:41.716Z,600.00
2023-02-28T08:43:39.029Z,622.00
2023-02-28T08:48:38.334Z,618.00
2023-02-28T08:53:37.637Z,620.00
2023-02-28T08:58:36.967Z,585.00
2023-02-28T09:03:36.324Z,607.00
2023-02-28T09:08:35.501Z,597.00
2023-02-28T09:13:35.822Z,601.00
2023-02-28T09:18:34.127Z,606.00
2023-02-28T09:23:38.552Z,592.00
2023-02-28T09:28:33.641Z,588.00
2023-02-28T09:33:32.939Z,584.00
2023-02-28T09:38:31.210Z,581.00
2023-02-28T09:43:30.480Z,585.00
2023-02-28T09:48:31.772Z,583.00
2023-02-28T09:53:29.009Z,584.00
2023-02-28T09:58:29.308Z,569.00
2023-02-28T10:03:30.701Z,587.00
2023-02-28T10:08:26.778Z,564.00
2023-02-28T10:13:26.074Z,565.00
2023-02-28T10:18:25.394Z,570.00
2023-02-28T10:23:25.701Z,574.00
2023-02-28T10:28:24.055Z,568.00
2023-02-28T10:33:23.250Z,566.00
2023-02-28T10:38:23.418Z,562.00
2023-02-28T10:43:22.756Z,558.00
2023-02-28T10:48:20.908Z,579.00
2023-02-28T10:53:20.039Z,551.00
2023-02-28T10:58:19.357Z,558.00
2023-02-28T11:03:18.692Z,556.00
2023-02-28T11:08:19.814Z,552.00
2023-02-28T11:13:19.110Z,558.00
2023-02-28T11:18:18.082Z,542.00
2023-02-28T11:23:15.821Z,559.00
2023-02-28T11:28:14.984Z,558.00
2023-02-28T11:33:14.120Z,553.00
2023-02-28T11:38:13.261Z,556.00
2023-02-28T11:43:12.695Z,553.00
2023-02-28T11:48:11.834Z,562.00
2023-02-28T11:53:11.187Z,566.00
2023-02-28T11:58:10.354Z,560.00
2023-02-28T12:03:11.449Z,568.00
2023-02-28T12:08:10.762Z,555.00
2023-02-28T12:13:08.042Z,545.00
2023-02-28T12:18:08.363Z,555.00
2023-02-28T12:23:06.657Z,547.00
2023-02-28T12:28:05.983Z,545.00
2023-02-28T12:33:05.115Z,552.00
2023-02-28T12:38:05.268Z,546.00
2023-02-28T12:43:05.403Z,546.00
2023-02-28T12:48:04.754Z,553.00
2023-02-28T12:53:03.056Z,548.00
2023-02-28T12:58:01.258Z,559.00
2023-02-28T13:03:01.824Z,548.00
2023-02-28T13:07:59.682Z,547.00
2023-02-28T13:12:59.915Z,544.00
2023-02-28T13:17:59.105Z,551.00
2023-02-28T13:22:57.315Z,546.00
2023-02-28T13:27:55.625Z,551.00
2023-02-28T13:32:57.831Z,542.00
2023-02-28T13:37:56.019Z,550.00
2023-02-28T13:42:55.220Z,558.00
2023-02-28T13:47:54.416Z,549.00
2023-02-28T13:52:53.632Z,539.00
2023-02-28T13:57:51.806Z,549.00
2023-02-28T14:02:52.486Z,523.00
2023-02-28T14:07:52.267Z,542.00
2023-02-28T14:12:51.029Z,530.00
2023-02-28T14:17:47.848Z,539.00
2023-02-28T14:22:48.984Z,527.00
2023-02-28T14:27:48.156Z,538.00
2023-02-28T14:32:47.346Z,537.00
2023-02-28T14:37:48.797Z,541.00
2023-02-28T14:42:44.764Z,558.00
2023-02-28T14:47:45.022Z,532.00
2023-02-28T14:52:43.293Z,534.00
2023-02-28T14:57:42.620Z,543.00
2023-02-28T15:02:41.937Z,538.00
2023-02-28T15:07:40.262Z,534.00
2023-02-28T15:12:40.567Z,533.00
2023-02-28T15:17:39.905Z,525.00
2023-02-28T15:22:40.204Z,536.00
2023-02-28T15:27:39.523Z,533.00
2023-02-28T15:32:37.892Z,537.00
2023-02-28T15:37:38.112Z,542.00
2023-02-28T15:42:36.210Z,546.00
2023-02-28T15:47:35.576Z,569.00
2023-02-28T15:52:34.683Z,537.00
2023-02-28T15:57:35.009Z,547.00
2023-02-28T16:02:33.353Z,542.00
2023-02-28T16:07:32.333Z,534.00
2023-02-28T16:12:32.502Z,541.00
2023-02-28T16:17:30.680Z,533.00
2023-02-28T16:22:30.841Z,536.00
2023-02-28T16:27:28.941Z,538.00
2023-02-28T16:32:28.321Z,530.00
2023-02-28T16:37:31.591Z,529.00
2023-02-28T16:42:27.759Z,546.00
2023-02-28T16:47:26.060Z,535.00
2023-02-28T16:52:25.647Z,517.00
2023-02-28T16:57:24.613Z,547.00
2023-02-28T17:02:24.380Z,553.00
2023-02-28T17:07:23.083Z,535.00
2023-02-28T17:12:23.703Z,513.00
2023-02-28T17:17:22.642Z,543.00
2023-02-28T17:22:20.949Z,545.00
2023-02-28T17:27:20.337Z,541.00
2023-02-28T17:32:20.846Z,540.00
2023-02-28T17:37:18.991Z,556.00
2023-02-28T17:42:18.031Z,533.00
2023-02-28T17:47:18.057Z,540.00
2023-02-28T17:52:17.353Z,552.00
2023-02-28T17:57:14.528Z,542.00
2023-02-28T18:02:17.058Z,540.00
2023-02-28T18:07:13.887Z,535.00
2023-02-28T18:12:14.081Z,531.00
2023-02-28T18:17:15.298Z,551.00
2023-02-28T18:22:12.781Z,566.00
2023-02-28T18:27:10.973Z,580.00
2023-02-28T18:32:10.290Z,631.00
2023-02-28T18:37:10.155Z,682.00
2023-02-28T18:42:09.590Z,699.00
2023-02-28T18:47:07.582Z,670.00
2023-02-28T18:52:06.926Z,656.00
2023-02-28T18:57:07.432Z,690.00
2023-02-28T19:02:05.742Z,673.00
2023-02-28T19:07:06.557Z,659.00
2023-02-28T19:12:04.053Z,612.00
2023-02-28T19:17:03.036Z,687.00
2023-02-28T19:22:02.687Z,672.00
2023-02-28T19:27:02.802Z,721.00
2023-02-28T19:32:02.365Z,722.00
2023-02-28T19:37:01.530Z,734.00
2023-02-28T19:41:59.716Z,762.00
2023-02-28T19:46:58.900Z,729.00
2023-02-28T19:51:58.113Z,754.00
2023-02-28T19:56:57.327Z,760.00
2023-02-28T20:01:57.115Z,745.00
2023-02-28T20:06:56.834Z,777.00
2023-02-28T20:11:55.957Z,742.00
2023-02-28T20:16:55.475Z,737.00
2023-02-28T20:21:53.403Z,773.00
2023-02-28T20:26:52.400Z,774.00
2023-02-28T20:31:53.125Z,774.00
2023-02-28T20:36:50.305Z,760.00
2023-02-28T20:41:51.426Z,774.00
2023-02-28T20:46:49.397Z,801.00
2023-02-28T20:51:51.604Z,735.00
2023-02-28T20:56:53.147Z,796.00
2023-02-28T21:01:47.453Z,769.00
2023-02-28T21:06:48.611Z,761.00
2023-02-28T21:11:46.222Z,744.00
2023-02-28T21:16:45.214Z,784.00
2023-02-28T21:21:45.852Z,770.00
2023-02-28T21:26:44.095Z,766.00
2023-02-28T21:31:43.366Z,785.00
2023-02-28T21:36:43.277Z,763.00
2023-02-28T21:41:41.697Z,777.00
2023-02-28T21:46:40.938Z,781.00
2023-02-28T21:51:40.082Z,768.00
2023-02-28T21:56:39.449Z,768.00
2023-02-28T22:01:39.655Z,736.00
2023-02-28T22:06:38.842Z,730.00
2023-02-28T22:11:36.968Z,717.00
2023-02-28T22:16:50.370Z,698.00
2023-02-28T22:21:35.518Z,693.00
2023-02-28T22:26:33.844Z,728.00
2023-02-28T22:31:34.014Z,695.00
2023-02-28T22:36:34.172Z,695.00
2023-02-28T22:41:32.515Z,708.00
2023-02-28T22:46:32.067Z,720.00
2023-02-28T22:51:31.989Z,714.00
2023-02-28T22:56:30.560Z,708.00
2023-02-28T23:01:30.557Z,734.00
2023-02-28T23:06:29.069Z,728.00
2023-02-28T23:11:27.880Z,750.00
2023-02-28T23:16:27.215Z,792.00
2023-02-28T23:21:27.499Z,763.00
2023-02-28T23:26:26.745Z,727.00
2023-02-28T23:31:25.063Z,746.00
2023-02-28T23:36:26.348Z,728.00
2023-02-28T23:41:23.653Z,743.00
2023-02-28T23:46:22.961Z,746.00
2023-02-28T23:51:23.253Z,744.00
2023-02-28T23:56:22.534Z,757.00
